DTTZ/TOE METAR and TAF weather

Enter ICAO airport designator
Station Type Date Time Source
DTTZ METAR 2022/12/08 13:00 UTC NOAA

DTTZ 081300Z 19005KT 9999 FEW033 21/05 Q1014


Station Type Date Time Source
DTTZ Decoded METAR 2022/12/08 13:00 UTC NOAA

Tozeur, Tunisia (DTTZ) 33-55N 008-06E 93M
Dec 08, 2022 - 08:00 AM EST / 2022.12.08 1300 UTC
Wind: from the S (190 degrees) at 6 MPH (5 KT):0
Visibility: greater than 7 mile(s):0
Sky conditions: mostly clear
Temperature: 69 F (21 C)
Dew Point: 41 F (5 C)
Relative Humidity: 35%
Pressure (altimeter): 29.94 in. Hg (1014 hPa)
ob: DTTZ 081300Z 19005KT 9999 FEW033 21/05 Q1014
cycle: 13

Station Type Date Time Source
DTTZ TAF 2022/12/08 12:09 UTC NOAA

TAF DTTZ 081100Z 0812/0912 11010KT CAVOK
BECMG 0815/0817 VRB02KT
BECMG 0909/0911 18010KT

Example: see airport list